Time;durP1;ratioP1;P1;durP2;ratioP2;P2;SDS_P1;SDS_P2;PMS_P1;PMS_P2;Temp;Humidity;BMP_temperature;BMP_pressure;BME280_temperature;BME280_humidity;BME280_pressure;Samples;Min_cycle;Max_cycle;Signal;HPM_P1;HPM_P2
2022/10/11 00:00:54;;;;;;;29.95;26.80;;;16.30;96.90;;;;;;4984489;28;20399;-78
2022/10/11 00:03:20;;;;;;;30.35;27.33;;;16.30;97.20;;;;;;4981173;28;20053;-77
2022/10/11 00:05:47;;;;;;;31.17;27.83;;;16.30;97.30;;;;;;4976672;28;20037;-77
2022/10/11 00:08:13;;;;;;;31.73;28.02;;;16.30;97.30;;;;;;4966040;28;20129;-78
2022/10/11 00:10:40;;;;;;;33.78;29.10;;;16.20;97.20;;;;;;4986518;28;20039;-77
2022/10/11 00:13:06;;;;;;;30.38;27.15;;;16.20;97.50;;;;;;4950099;28;20510;-77
2022/10/11 00:15:32;;;;;;;28.90;25.90;;;16.20;97.50;;;;;;4979187;28;20408;-78
2022/10/11 00:17:58;;;;;;;36.80;33.35;;;16.10;97.60;;;;;;4959479;28;20472;-78
2022/10/11 00:20:25;;;;;;;30.65;27.63;;;16.10;97.70;;;;;;4948279;28;20054;-78
2022/10/11 00:22:51;;;;;;;31.25;27.05;;;16.10;97.60;;;;;;4981048;28;20038;-77
2022/10/11 00:25:17;;;;;;;31.92;28.85;;;16.00;97.40;;;;;;4948282;28;20054;-77
2022/10/11 00:27:44;;;;;;;30.88;28.05;;;16.10;97.40;;;;;;4968135;28;20417;-78
2022/10/11 00:30:10;;;;;;;29.35;26.35;;;16.10;97.50;;;;;;4964364;28;20388;-77
2022/10/11 00:32:37;;;;;;;35.33;31.83;;;16.00;97.40;;;;;;4970728;28;20046;-77
2022/10/11 00:35:05;;;;;;;29.92;26.80;;;16.00;97.50;;;;;;4983776;28;20050;-77
2022/10/11 00:37:35;;;;;;;30.15;27.15;;;16.00;97.40;;;;;;4981086;28;20038;-78
2022/10/11 00:40:03;;;;;;;29.45;26.60;;;16.00;97.50;;;;;;4960754;28;20057;-78
2022/10/11 00:42:29;;;;;;;32.72;29.55;;;15.90;97.40;;;;;;4982092;28;20018;-78
2022/10/11 00:45:30;;;;;;;28.17;25.58;;;16.00;97.30;;;;;;4980060;28;20043;-78
2022/10/11 00:47:59;;;;;;;27.80;25.52;;;15.90;97.40;;;;;;5004645;28;20030;-78
2022/10/11 00:50:25;;;;;;;28.88;26.02;;;15.90;97.30;;;;;;4977524;28;20046;-77
2022/10/11 00:52:53;;;;;;;29.60;27.00;;;15.90;97.20;;;;;;5000335;28;20042;-77
2022/10/11 00:55:20;;;;;;;27.52;24.90;;;15.80;97.30;;;;;;4987495;28;20046;-77
2022/10/11 00:57:47;;;;;;;27.13;24.60;;;15.80;97.30;;;;;;4997983;28;20289;-78
2022/10/11 01:00:13;;;;;;;32.42;29.45;;;15.80;97.50;;;;;;5008323;28;20042;-77
2022/10/11 01:02:39;;;;;;;27.88;25.42;;;15.80;97.30;;;;;;4995005;28;20046;-77
2022/10/11 01:05:07;;;;;;;27.30;24.83;;;15.80;97.20;;;;;;4987657;28;20050;-77
2022/10/11 01:07:33;;;;;;;25.65;23.20;;;15.80;97.00;;;;;;4994408;28;20476;-77
2022/10/11 01:09:59;;;;;;;24.73;22.30;;;15.80;97.00;;;;;;4994720;28;20414;-77
2022/10/11 01:12:26;;;;;;;26.08;23.63;;;15.70;97.00;;;;;;5007174;28;20033;-77
2022/10/11 01:15:09;;;;;;;25.10;23.00;;;15.70;97.10;;;;;;4999564;28;20042;-77
2022/10/11 01:18:04;;;;;;;26.77;22.33;;;15.70;97.00;;;;;;5000237;28;20038;-77
2022/10/11 01:20:42;;;;;;;26.35;23.52;;;15.60;97.10;;;;;;5002406;28;20047;-77
2022/10/11 01:23:17;;;;;;;28.60;25.83;;;15.60;97.30;;;;;;5002974;28;20034;-77
2022/10/11 01:26:01;;;;;;;26.90;24.10;;;15.60;97.20;;;;;;5002922;28;20025;-77
2022/10/11 01:28:33;;;;;;;27.00;24.50;;;15.60;97.20;;;;;;5002830;28;20140;-77
2022/10/11 01:31:03;;;;;;;26.15;24.05;;;15.60;97.20;;;;;;4997387;28;20037;-77
2022/10/11 01:33:31;;;;;;;26.33;24.10;;;15.60;97.20;;;;;;5013387;28;20029;-77
2022/10/11 01:36:27;;;;;;;27.35;24.98;;;15.70;97.10;;;;;;5014014;28;20030;-78
2022/10/11 01:39:19;;;;;;;26.50;23.98;;;15.70;97.20;;;;;;4994506;28;20035;-78
2022/10/11 01:41:53;;;;;;;26.98;24.50;;;15.70;97.00;;;;;;4980695;28;20026;-77
2022/10/11 01:44:19;;;;;;;27.55;25.00;;;15.70;97.10;;;;;;4965299;28;20037;-77
2022/10/11 01:46:45;;;;;;;26.30;23.73;;;15.70;97.10;;;;;;4996397;28;20034;-78
2022/10/11 01:49:11;;;;;;;25.70;23.27;;;15.70;97.20;;;;;;4996908;28;20053;-78
2022/10/11 01:51:47;;;;;;;26.48;23.88;;;15.70;97.00;;;;;;4980888;28;20038;-78
2022/10/11 01:54:28;;;;;;;26.92;24.27;;;15.70;97.10;;;;;;4995350;28;20050;-78
2022/10/11 01:57:24;;;;;;;28.48;25.70;;;15.80;97.00;;;;;;4994572;28;20034;-78
2022/10/11 02:00:10;;;;;;;25.50;23.27;;;15.80;97.00;;;;;;5007891;28;20498;-77
2022/10/11 02:02:47;;;;;;;26.20;23.67;;;15.80;96.80;;;;;;4978810;28;20892;-77
2022/10/11 02:05:28;;;;;;;26.05;23.65;;;15.90;96.70;;;;;;5001505;28;20081;-78
2022/10/11 02:08:16;;;;;;;26.05;23.70;;;15.90;96.70;;;;;;4985089;28;20042;-78
2022/10/11 02:10:49;;;;;;;24.70;22.15;;;15.90;96.60;;;;;;5001539;28;20018;-78
2022/10/11 02:13:27;;;;;;;23.23;21.27;;;16.00;96.20;;;;;;4984783;28;20038;-77
2022/10/11 02:15:53;;;;;;;22.90;21.02;;;15.90;96.40;;;;;;5001547;28;20128;-78
2022/10/11 02:18:24;;;;;;;23.38;21.42;;;15.80;96.80;;;;;;4982735;28;20480;-78
2022/10/11 02:20:50;;;;;;;23.92;21.67;;;15.80;96.80;;;;;;4983383;28;20375;-78
2022/10/11 02:23:28;;;;;;;23.65;21.42;;;15.80;96.70;;;;;;4993748;28;20034;-78
2022/10/11 02:25:55;;;;;;;23.25;20.70;;;15.80;96.70;;;;;;4988186;28;20490;-78
2022/10/11 02:28:23;;;;;;;23.15;20.88;;;15.80;96.70;;;;;;5001309;28;20033;-78
2022/10/11 02:30:49;;;;;;;21.90;19.67;;;15.70;96.80;;;;;;4977756;28;20030;-78
2022/10/11 02:33:18;;;;;;;23.00;20.75;;;15.80;96.80;;;;;;5008490;28;20410;-78
2022/10/11 02:35:46;;;;;;;22.80;20.52;;;15.60;96.80;;;;;;4981478;28;20042;-78
2022/10/11 02:38:29;;;;;;;24.63;22.08;;;15.60;97.00;;;;;;5031535;28;20026;-77
2022/10/11 02:41:21;;;;;;;25.55;21.13;;;15.60;97.00;;;;;;4996962;28;20022;-77
2022/10/11 02:43:53;;;;;;;22.88;20.75;;;15.80;97.00;;;;;;5008189;28;20046;-78
2022/10/11 02:46:19;;;;;;;24.00;20.30;;;15.80;96.60;;;;;;5004926;28;20038;-77
2022/10/11 02:48:45;;;;;;;21.98;20.08;;;15.80;96.50;;;;;;5001075;28;20379;-77
2022/10/11 02:51:12;;;;;;;23.17;20.98;;;15.70;96.80;;;;;;5005769;28;20030;-77
2022/10/11 02:53:38;;;;;;;31.85;20.92;;;15.70;96.80;;;;;;4995316;28;20053;-78
2022/10/11 02:56:05;;;;;;;22.65;19.75;;;15.80;96.60;;;;;;4993980;28;20034;-77
2022/10/11 02:58:31;;;;;;;23.48;20.73;;;15.80;96.60;;;;;;4994986;28;20049;-78
2022/10/11 03:00:57;;;;;;;23.27;20.85;;;15.70;96.70;;;;;;4999478;28;20026;-77
2022/10/11 03:03:23;;;;;;;25.48;20.50;;;15.70;96.70;;;;;;4979514;28;20031;-77
2022/10/11 03:05:49;;;;;;;26.10;23.17;;;15.60;96.60;;;;;;4957518;28;20392;-77
2022/10/11 03:08:15;;;;;;;24.02;21.50;;;15.60;96.60;;;;;;4945327;28;20039;-77
2022/10/11 03:10:41;;;;;;;26.02;22.67;;;15.50;96.70;;;;;;4946683;28;20050;-77
2022/10/11 03:13:07;;;;;;;26.48;23.75;;;15.50;96.80;;;;;;4980890;28;20030;-77
2022/10/11 03:15:34;;;;;;;25.33;22.00;;;15.60;96.70;;;;;;4940680;28;20518;-77
2022/10/11 03:18:00;;;;;;;25.30;22.65;;;15.60;96.80;;;;;;4944090;28;20396;-77
2022/10/11 03:20:26;;;;;;;25.23;22.80;;;15.60;96.80;;;;;;4977409;28;20042;-77
2022/10/11 03:22:52;;;;;;;25.58;23.08;;;15.60;96.80;;;;;;4984107;28;20053;-77
2022/10/11 03:25:18;;;;;;;24.50;22.20;;;15.60;96.50;;;;;;4981599;28;20064;-77
2022/10/11 03:27:44;;;;;;;27.25;22.88;;;15.50;96.70;;;;;;4958471;28;20045;-78
2022/10/11 03:30:11;;;;;;;25.17;22.15;;;15.50;96.70;;;;;;4971065;28;20058;-78
2022/10/11 03:32:37;;;;;;;25.83;23.23;;;15.50;96.50;;;;;;4956874;28;20035;-77
2022/10/11 03:35:03;;;;;;;27.70;25.05;;;15.50;96.70;;;;;;4991665;28;20053;-78
2022/10/11 03:37:29;;;;;;;26.63;22.92;;;15.50;96.80;;;;;;4988219;28;20025;-77
2022/10/11 03:39:55;;;;;;;28.60;25.63;;;15.50;96.70;;;;;;4991397;28;20463;-77
2022/10/11 03:42:21;;;;;;;25.65;22.30;;;15.40;96.60;;;;;;4991934;28;20041;-77
2022/10/11 03:44:50;;;;;;;30.20;22.95;;;15.40;96.70;;;;;;4992792;28;20411;-77
2022/10/11 03:47:17;;;;;;;25.88;23.15;;;15.40;96.70;;;;;;4991475;28;20030;-77
2022/10/11 03:49:43;;;;;;;26.27;23.45;;;15.50;96.60;;;;;;4975446;28;20069;-77
2022/10/11 03:52:09;;;;;;;27.73;24.90;;;15.40;96.60;;;;;;4975805;28;20045;-77
2022/10/11 03:54:35;;;;;;;28.60;24.73;;;15.30;96.60;;;;;;4990678;28;20042;-77
2022/10/11 03:57:01;;;;;;;26.20;22.13;;;15.40;96.70;;;;;;4990895;28;20039;-78
2022/10/11 03:59:27;;;;;;;25.27;22.38;;;15.40;96.70;;;;;;4973944;28;20035;-77
2022/10/11 04:01:53;;;;;;;26.13;23.05;;;15.40;96.60;;;;;;4959709;28;20392;-76
2022/10/11 04:04:19;;;;;;;31.48;26.83;;;15.30;96.50;;;;;;4975602;28;20031;-76
2022/10/11 04:06:45;;;;;;;27.15;24.17;;;15.30;96.50;;;;;;4972735;28;20054;-77
2022/10/11 04:09:11;;;;;;;27.38;24.63;;;15.30;96.60;;;;;;4981480;28;20054;-77
2022/10/11 04:11:38;;;;;;;31.05;25.88;;;15.40;96.50;;;;;;4984380;28;20038;-77
2022/10/11 04:14:04;;;;;;;29.75;23.15;;;15.20;96.70;;;;;;4962002;28;20054;-78
2022/10/11 04:16:30;;;;;;;32.53;23.80;;;15.30;96.80;;;;;;4964498;28;20042;-78
2022/10/11 04:18:56;;;;;;;30.92;25.05;;;15.30;96.60;;;;;;4970359;28;20407;-77
2022/10/11 04:21:22;;;;;;;29.77;23.40;;;15.30;96.50;;;;;;4997369;28;20038;-78
2022/10/11 04:23:48;;;;;;;30.35;23.95;;;15.30;96.60;;;;;;4972027;28;20033;-77
2022/10/11 04:26:14;;;;;;;29.50;23.80;;;15.30;96.60;;;;;;4994387;28;20039;-77
2022/10/11 04:28:40;;;;;;;37.63;24.02;;;15.30;96.50;;;;;;4979326;28;20039;-78
2022/10/11 04:31:06;;;;;;;27.55;24.67;;;15.30;96.50;;;;;;4954962;28;20070;-78
2022/10/11 04:33:33;;;;;;;26.80;23.77;;;15.30;96.50;;;;;;4981087;28;20038;-77
2022/10/11 04:35:59;;;;;;;33.05;24.02;;;15.30;96.50;;;;;;4981748;28;20377;-77
2022/10/11 04:38:25;;;;;;;26.83;22.33;;;15.30;96.50;;;;;;4976895;28;20403;-78
2022/10/11 04:40:51;;;;;;;29.00;24.40;;;15.30;96.40;;;;;;4978156;28;20034;-77
2022/10/11 04:43:17;;;;;;;25.90;23.30;;;15.40;96.20;;;;;;4984214;28;20388;-78
2022/10/11 04:45:43;;;;;;;33.97;24.05;;;15.30;96.50;;;;;;4978757;28;20038;-78
2022/10/11 04:48:09;;;;;;;26.95;23.20;;;15.30;96.30;;;;;;4998067;28;20045;-77
2022/10/11 04:50:36;;;;;;;27.65;21.83;;;15.30;96.40;;;;;;4977931;28;20034;-77
2022/10/11 04:53:02;;;;;;;28.38;25.05;;;15.30;96.40;;;;;;4978531;28;20039;-77
2022/10/11 04:55:28;;;;;;;29.25;24.98;;;15.20;96.30;;;;;;4995776;28;20049;-77
2022/10/11 04:57:54;;;;;;;31.50;23.63;;;15.20;96.30;;;;;;4993638;28;20034;-77
2022/10/11 05:00:20;;;;;;;28.23;22.70;;;15.20;96.50;;;;;;4964030;28;20051;-77
2022/10/11 05:02:46;;;;;;;29.67;22.73;;;15.20;96.50;;;;;;4976338;28;20050;-77
2022/10/11 05:05:16;;;;;;;25.63;21.65;;;15.10;96.50;;;;;;4962187;28;20427;-77
2022/10/11 05:07:43;;;;;;;28.48;22.52;;;15.20;96.70;;;;;;4982909;28;20042;-77
2022/10/11 05:10:09;;;;;;;32.00;23.33;;;15.30;96.40;;;;;;4998018;28;20403;-77
2022/10/11 05:12:35;;;;;;;28.73;25.45;;;15.20;96.30;;;;;;4976935;28;20395;-77
2022/10/11 05:15:01;;;;;;;24.25;21.88;;;15.20;96.30;;;;;;4977912;28;20057;-78
2022/10/11 05:17:27;;;;;;;29.98;22.83;;;15.20;96.50;;;;;;5007140;28;20034;-77
2022/10/11 05:19:53;;;;;;;26.58;22.33;;;15.20;96.50;;;;;;4992490;28;20045;-77
2022/10/11 05:22:20;;;;;;;26.92;22.48;;;15.10;96.50;;;;;;4981289;28;20042;-77
2022/10/11 05:24:46;;;;;;;27.42;21.98;;;15.20;96.50;;;;;;4999058;28;20048;-77
2022/10/11 05:27:12;;;;;;;24.45;21.65;;;15.20;96.40;;;;;;4984566;28;20034;-77
2022/10/11 05:29:38;;;;;;;30.98;24.58;;;15.20;96.50;;;;;;4997834;28;20133;-78
2022/10/11 05:32:04;;;;;;;29.67;23.05;;;15.20;96.30;;;;;;4995132;28;20038;-77
2022/10/11 05:34:30;;;;;;;24.65;22.05;;;15.20;96.40;;;;;;4992818;28;20042;-78
2022/10/11 05:36:56;;;;;;;27.58;22.77;;;15.20;96.40;;;;;;5022003;28;20029;-77
2022/10/11 05:39:23;;;;;;;30.63;23.13;;;15.10;96.30;;;;;;5025790;28;20029;-77
2022/10/11 05:41:49;;;;;;;25.48;22.83;;;15.30;96.20;;;;;;5027349;28;20041;-77
2022/10/11 05:44:15;;;;;;;25.85;23.35;;;15.30;96.20;;;;;;4997297;28;20394;-77
2022/10/11 05:46:41;;;;;;;27.15;22.05;;;15.30;96.00;;;;;;4998877;28;20042;-77
2022/10/11 05:49:07;;;;;;;30.80;21.58;;;15.20;96.00;;;;;;4960429;28;20046;-77
2022/10/11 05:51:33;;;;;;;24.33;21.85;;;15.20;96.00;;;;;;4993160;28;20031;-79
2022/10/11 05:54:00;;;;;;;25.20;22.80;;;15.20;95.90;;;;;;4945154;28;20415;-83
2022/10/11 05:56:26;;;;;;;25.63;21.70;;;15.20;95.80;;;;;;4968071;28;20042;-78
2022/10/11 05:58:52;;;;;;;28.25;22.05;;;15.10;95.90;;;;;;4971737;28;20062;-81
2022/10/11 06:01:22;;;;;;;24.77;22.45;;;15.10;95.90;;;;;;4977082;28;20030;-80
2022/10/11 06:03:48;;;;;;;25.80;23.50;;;15.20;95.60;;;;;;4962369;28;20037;-82
2022/10/11 06:06:15;;;;;;;23.92;21.98;;;15.10;95.10;;;;;;4994084;28;20050;-83
2022/10/11 06:08:41;;;;;;;23.50;21.20;;;15.00;94.90;;;;;;4993888;28;20034;-82
2022/10/11 06:11:14;;;;;;;23.02;20.77;;;14.90;95.00;;;;;;4993517;28;20035;-86
2022/10/11 06:13:41;;;;;;;22.92;21.00;;;14.80;95.10;;;;;;4991750;28;20049;-85
2022/10/11 06:16:07;;;;;;;21.85;20.10;;;14.80;94.70;;;;;;4969162;28;20043;-85
2022/10/11 06:18:33;;;;;;;23.13;20.88;;;14.70;94.50;;;;;;4977804;28;20030;-78
2022/10/11 06:20:59;;;;;;;21.95;20.10;;;14.70;94.30;;;;;;4982625;28;20504;-83
2022/10/11 06:23:25;;;;;;;22.63;20.83;;;14.60;94.20;;;;;;4974457;28;20043;-86
2022/10/11 06:25:58;;;;;;;21.65;19.85;;;14.60;93.80;;;;;;4966514;28;20030;-85
2022/10/11 06:28:26;;;;;;;22.63;20.65;;;14.50;94.00;;;;;;4965735;28;20035;-83
2022/10/11 06:30:52;;;;;;;22.35;20.50;;;14.60;93.70;;;;;;4984889;28;20495;-85
2022/10/11 06:33:18;;;;;;;21.80;19.80;;;14.50;93.70;;;;;;4983323;28;20023;-85
2022/10/11 06:35:44;;;;;;;22.05;18.95;;;14.50;93.30;;;;;;4961366;28;20054;-85
2022/10/11 06:38:10;;;;;;;22.17;19.52;;;14.40;93.20;;;;;;4963750;28;20054;-79
2022/10/11 06:40:37;;;;;;;19.38;17.88;;;14.40;93.50;;;;;;4977393;28;20034;-85
2022/10/11 06:43:03;;;;;;;21.05;19.05;;;14.40;93.40;;;;;;4977579;28;20026;-83
2022/10/11 06:45:29;;;;;;;19.77;18.25;;;14.40;93.40;;;;;;4980522;28;20499;-87
2022/10/11 06:47:55;;;;;;;18.83;17.42;;;14.40;93.50;;;;;;4978090;28;20026;-88
2022/10/11 06:50:21;;;;;;;19.80;18.00;;;14.40;93.80;;;;;;5002285;28;20479;-87
2022/10/11 06:52:47;;;;;;;19.48;17.80;;;14.30;93.70;;;;;;4994932;28;20026;-78
2022/10/11 06:55:13;;;;;;;18.83;17.27;;;14.20;93.80;;;;;;4973623;28;20411;-78
2022/10/11 06:57:39;;;;;;;20.30;18.70;;;14.30;93.80;;;;;;4992640;28;20030;-78
2022/10/11 07:00:06;;;;;;;20.35;18.90;;;14.40;93.50;;;;;;4969836;28;20127;-79
2022/10/11 07:02:32;;;;;;;21.30;19.60;;;14.40;93.40;;;;;;4975875;28;20053;-86
2022/10/11 07:04:58;;;;;;;20.60;18.90;;;14.30;93.10;;;;;;4960924;28;20050;-85
2022/10/11 07:07:24;;;;;;;19.45;17.58;;;14.20;93.30;;;;;;4957263;28;20038;-84
2022/10/11 07:09:50;;;;;;;19.60;17.67;;;14.30;93.00;;;;;;4981579;28;20038;-87
2022/10/11 07:12:16;;;;;;;20.30;18.58;;;14.30;93.70;;;;;;4974256;28;20046;-85
2022/10/11 07:14:42;;;;;;;22.02;20.33;;;14.40;94.00;;;;;;4985418;28;20387;-85
2022/10/11 07:17:08;;;;;;;22.05;19.95;;;14.60;93.20;;;;;;4983705;28;20034;-84
2022/10/11 07:19:35;;;;;;;22.45;20.55;;;14.70;93.10;;;;;;4990874;28;20049;-83
2022/10/11 07:22:01;;;;;;;21.70;19.65;;;14.70;92.70;;;;;;4971163;28;20482;-85
2022/10/11 07:24:27;;;;;;;20.88;19.10;;;14.60;92.90;;;;;;4974365;28;20030;-85
2022/10/11 07:26:53;;;;;;;22.17;20.00;;;14.60;93.20;;;;;;4995671;28;20037;-84
2022/10/11 07:29:19;;;;;;;21.67;20.17;;;14.60;93.20;;;;;;4979718;28;20050;-82
2022/10/11 07:31:45;;;;;;;20.60;18.83;;;14.70;93.00;;;;;;4959955;28;20026;-86
2022/10/11 07:34:11;;;;;;;22.50;20.38;;;14.80;92.40;;;;;;4978060;28;20035;-84
2022/10/11 07:36:37;;;;;;;22.17;20.38;;;14.70;92.60;;;;;;4958336;28;20053;-83
2022/10/11 07:39:04;;;;;;;21.75;19.83;;;14.80;92.40;;;;;;5011938;28;20037;-83
2022/10/11 07:41:30;;;;;;;21.60;19.40;;;14.70;92.10;;;;;;5001959;28;20034;-85
2022/10/11 07:43:57;;;;;;;21.92;19.20;;;14.70;92.30;;;;;;4996001;28;20045;-85
2022/10/11 07:46:23;;;;;;;23.23;20.95;;;14.70;92.40;;;;;;4979107;28;20042;-87
2022/10/11 07:48:49;;;;;;;20.60;18.52;;;14.70;92.00;;;;;;4979186;28;20039;-83
2022/10/11 07:51:19;;;;;;;20.15;18.65;;;14.70;92.20;;;;;;4990383;28;20049;-84
2022/10/11 07:53:50;;;;;;;21.73;19.95;;;14.70;92.00;;;;;;4990681;28;20026;-86
2022/10/11 07:56:18;;;;;;;22.67;20.77;;;14.70;92.00;;;;;;4975433;28;20046;-85
2022/10/11 07:58:48;;;;;;;21.38;19.33;;;14.80;92.30;;;;;;4975688;28;20402;-86
2022/10/11 08:01:14;;;;;;;22.05;20.25;;;14.80;91.70;;;;;;4945671;28;20050;-86
2022/10/11 08:03:40;;;;;;;39.00;35.72;;;14.70;91.60;;;;;;4974615;28;20043;-85
2022/10/11 08:06:07;;;;;;;21.52;19.50;;;14.60;91.70;;;;;;4973583;28;20038;-85
2022/10/11 08:08:33;;;;;;;20.35;18.58;;;14.70;91.50;;;;;;4973788;28;20391;-86
2022/10/11 08:10:59;;;;;;;19.25;17.50;;;14.70;91.70;;;;;;4961018;28;20042;-85
2022/10/11 08:13:25;;;;;;;19.65;17.63;;;14.60;91.90;;;;;;4992145;28;20379;-84
2022/10/11 08:15:52;;;;;;;20.45;18.70;;;14.60;91.70;;;;;;4991271;28;20502;-85
2022/10/11 08:18:18;;;;;;;20.23;18.42;;;14.60;91.90;;;;;;4991583;28;20026;-84
2022/10/11 08:20:44;;;;;;;19.55;17.95;;;14.70;91.70;;;;;;4971884;28;20046;-83
2022/10/11 08:23:10;;;;;;;21.10;19.20;;;14.70;91.70;;;;;;4950306;28;20046;-84
2022/10/11 08:25:41;;;;;;;21.23;19.02;;;14.70;91.60;;;;;;4973794;28;20049;-83
2022/10/11 08:28:08;;;;;;;19.95;18.13;;;14.70;91.50;;;;;;4973869;28;20035;-86
2022/10/11 08:30:35;;;;;;;20.60;18.35;;;14.60;91.70;;;;;;4975680;28;20038;-86
2022/10/11 08:33:01;;;;;;;20.33;18.42;;;14.50;91.80;;;;;;4959685;28;20043;-86
2022/10/11 08:35:27;;;;;;;23.73;19.08;;;14.60;91.80;;;;;;4964345;28;20174;-78
2022/10/11 08:37:53;;;;;;;20.70;18.80;;;14.50;92.00;;;;;;4996210;28;20407;-78
2022/10/11 08:40:20;;;;;;;20.55;18.63;;;14.50;91.80;;;;;;4991471;28;20038;-78
2022/10/11 08:42:46;;;;;;;21.85;18.83;;;14.50;92.00;;;;;;4975319;28;20407;-78
2022/10/11 08:45:44;;;;;;;26.85;20.58;;;14.40;92.10;;;;;;4987519;28;20045;-86
2022/10/11 08:48:14;;;;;;;25.42;19.13;;;14.50;92.30;;;;;;4971132;28;20046;-83
2022/10/11 08:50:41;;;;;;;26.05;21.25;;;14.80;92.70;;;;;;4976625;28;20049;-85
2022/10/11 08:53:17;;;;;;;22.25;19.90;;;14.80;91.80;;;;;;4948234;28;20403;-84
2022/10/11 08:55:49;;;;;;;24.77;20.83;;;15.00;92.20;;;;;;4991493;28;20046;-77
2022/10/11 08:58:24;;;;;;;25.80;21.48;;;15.00;91.50;;;;;;4976361;28;20054;-78
2022/10/11 09:00:52;;;;;;;21.08;19.20;;;15.00;91.60;;;;;;4972900;28;20472;-78
2022/10/11 09:03:18;;;;;;;22.60;20.35;;;14.90;91.60;;;;;;4989710;28;20037;-83
2022/10/11 09:06:12;;;;;;;23.38;21.10;;;14.80;91.90;;;;;;4993222;28;20202;-82
2022/10/11 09:09:14;;;;;;;25.23;20.92;;;14.90;91.90;;;;;;4977530;28;20041;-78
2022/10/11 09:12:21;;;;;;;23.10;19.73;;;14.70;91.90;;;;;;4944655;28;20566;-83
2022/10/11 09:15:02;;;;;;;23.38;21.25;;;14.80;92.10;;;;;;4879090;29;20037;-82
2022/10/11 09:17:50;;;;;;;22.95;20.80;;;14.90;91.80;;;;;;4856592;29;20037;-82
2022/10/11 09:20:25;;;;;;;24.95;21.45;;;14.90;92.30;;;;;;4862123;29;20160;-80
2022/10/11 09:22:53;;;;;;;24.85;21.70;;;14.90;92.10;;;;;;4878128;29;20041;-77
2022/10/11 09:25:26;;;;;;;24.55;22.20;;;15.00;92.00;;;;;;4876744;29;20056;-79
2022/10/11 09:28:06;;;;;;;24.90;22.42;;;15.10;91.90;;;;;;4874559;29;20041;-82
2022/10/11 09:30:33;;;;;;;28.10;23.80;;;15.10;92.00;;;;;;4847861;29;20040;-81
2022/10/11 09:33:07;;;;;;;25.90;23.35;;;15.20;91.90;;;;;;4856862;29;20052;-82
2022/10/11 09:35:37;;;;;;;25.92;23.27;;;15.30;91.60;;;;;;4856057;29;20076;-81
2022/10/11 09:38:05;;;;;;;25.58;23.17;;;15.30;91.80;;;;;;4876992;29;20041;-86
2022/10/11 09:40:52;;;;;;;26.70;24.25;;;15.30;91.80;;;;;;4878849;29;20052;-90
2022/10/11 09:43:19;;;;;;;31.25;25.50;;;15.30;91.90;;;;;;4875601;29;20048;-77
2022/10/11 09:45:45;;;;;;;28.67;25.85;;;15.50;92.00;;;;;;4920910;28;20039;-78
2022/10/11 09:48:36;;;;;;;29.27;26.23;;;15.60;92.10;;;;;;4942596;28;20389;-77
2022/10/11 09:51:05;;;;;;;26.45;24.02;;;15.80;91.80;;;;;;4975326;28;20494;-78
2022/10/11 09:53:53;;;;;;;29.20;26.20;;;15.80;91.40;;;;;;4958458;28;20357;-78
2022/10/11 09:56:19;;;;;;;30.10;26.83;;;15.80;91.70;;;;;;4977007;28;20049;-77
2022/10/11 09:58:45;;;;;;;32.50;26.48;;;15.80;91.90;;;;;;4958734;28;20046;-85
2022/10/11 10:01:20;;;;;;;31.08;27.75;;;15.80;92.00;;;;;;4957796;28;20037;-83
2022/10/11 10:03:46;;;;;;;31.58;26.73;;;15.90;92.00;;;;;;4978957;28;20026;-83
2022/10/11 10:06:14;;;;;;;27.73;24.98;;;16.00;91.90;;;;;;4991880;28;20403;-82
2022/10/11 10:08:42;;;;;;;28.60;25.63;;;16.00;91.30;;;;;;4994173;28;20033;-81
2022/10/11 10:11:08;;;;;;;28.58;25.77;;;15.90;91.50;;;;;;4994421;28;20022;-81
2022/10/11 10:13:44;;;;;;;29.98;27.00;;;15.90;91.80;;;;;;4974649;28;20459;-83
2022/10/11 10:16:22;;;;;;;30.70;26.27;;;15.90;92.20;;;;;;4975783;28;20043;-83
2022/10/11 10:18:56;;;;;;;29.33;26.30;;;15.90;92.30;;;;;;4993350;28;20037;-83
2022/10/11 10:21:27;;;;;;;33.65;27.90;;;16.00;92.20;;;;;;4990642;28;20050;-82
2022/10/11 10:23:56;;;;;;;32.22;28.65;;;16.00;92.10;;;;;;4976839;28;20038;-83
2022/10/11 10:26:23;;;;;;;31.00;28.42;;;16.10;92.10;;;;;;4962025;28;20471;-82
2022/10/11 10:29:15;;;;;;;32.38;29.45;;;16.20;91.90;;;;;;4974363;28;20041;-83
2022/10/11 10:31:47;;;;;;;30.80;28.13;;;16.20;91.80;;;;;;4980268;28;20031;-83
2022/10/11 10:34:18;;;;;;;29.55;26.67;;;16.20;92.00;;;;;;4984260;28;20391;-81
2022/10/11 10:36:45;;;;;;;31.33;28.38;;;16.20;92.00;;;;;;4963379;28;20046;-81
2022/10/11 10:39:20;;;;;;;33.78;30.55;;;16.20;92.10;;;;;;4975040;28;20039;-81
2022/10/11 10:41:46;;;;;;;32.22;29.10;;;16.30;92.10;;;;;;4993843;28;20513;-81
2022/10/11 10:44:12;;;;;;;30.77;28.08;;;16.30;91.80;;;;;;4982239;28;20027;-80
2022/10/11 10:47:00;;;;;;;30.58;27.90;;;16.40;92.20;;;;;;4985793;28;20395;-81
2022/10/11 10:49:46;;;;;;;29.65;26.85;;;16.40;91.60;;;;;;4993090;28;20030;-81
2022/10/11 10:52:40;;;;;;;27.70;25.35;;;16.30;91.60;;;;;;4974706;28;20027;-80
2022/10/11 10:55:34;;;;;;;30.55;27.80;;;16.30;91.80;;;;;;4979136;28;20061;-78
2022/10/11 10:58:08;;;;;;;29.75;26.98;;;16.30;92.10;;;;;;4974185;28;20039;-78
2022/10/11 11:00:45;;;;;;;30.23;27.63;;;16.50;91.60;;;;;;4961945;28;20100;-78
2022/10/11 11:03:21;;;;;;;30.27;27.73;;;16.60;91.40;;;;;;4962599;28;20046;-78
2022/10/11 11:06:06;;;;;;;32.15;29.35;;;16.60;91.10;;;;;;4941031;28;20031;-77
2022/10/11 11:08:55;;;;;;;30.58;26.75;;;16.60;91.00;;;;;;4989188;28;20042;-77
2022/10/11 11:11:49;;;;;;;29.50;26.77;;;16.60;90.80;;;;;;4976562;28;20042;-77
2022/10/11 11:14:20;;;;;;;29.15;26.60;;;16.50;91.00;;;;;;4974058;28;20030;-77
2022/10/11 11:17:09;;;;;;;;;;;16.50;91.10;;;;;;4989340;28;20050;-77
2022/10/11 11:20:17;;;;;;;28.13;25.83;;;16.50;91.10;;;;;;4992988;28;19910;-77
2022/10/11 11:23:01;;;;;;;28.33;25.77;;;16.50;91.40;;;;;;4969565;28;20058;-77
2022/10/11 11:25:32;;;;;;;30.50;27.77;;;16.60;91.30;;;;;;4958961;28;20385;-77
2022/10/11 11:28:01;;;;;;;29.73;27.08;;;16.70;91.00;;;;;;4952063;28;20042;-77
2022/10/11 11:30:31;;;;;;;31.17;28.23;;;16.70;90.80;;;;;;4956205;28;20167;-77
2022/10/11 11:33:01;;;;;;;29.90;27.42;;;16.70;91.20;;;;;;4934991;29;20664;-77
2022/10/11 11:35:35;;;;;;;32.70;29.90;;;16.80;91.20;;;;;;4934005;29;20043;-77
2022/10/11 11:38:08;;;;;;;29.77;27.38;;;16.80;91.00;;;;;;4919219;29;20036;-77
2022/10/11 11:40:37;;;;;;;28.90;26.65;;;16.70;90.90;;;;;;4917536;29;20105;-77
2022/10/11 11:43:11;;;;;;;31.17;28.45;;;16.80;91.00;;;;;;4921789;29;20027;-76
2022/10/11 11:45:53;;;;;;;31.02;28.95;;;16.80;91.20;;;;;;4924788;28;21558;-77
2022/10/11 11:48:23;;;;;;;34.92;32.28;;;16.90;91.10;;;;;;4941762;28;20043;-76
2022/10/11 11:51:05;;;;;;;37.38;34.30;;;17.00;90.60;;;;;;4954577;28;20042;-76
2022/10/11 11:53:40;;;;;;;29.25;26.83;;;17.10;90.40;;;;;;4954461;28;20042;-76
2022/10/11 11:56:14;;;;;;;30.55;27.92;;;17.10;90.20;;;;;;4950519;28;20062;-76
2022/10/11 11:58:54;;;;;;;28.80;26.40;;;17.20;90.40;;;;;;4953951;28;20043;-76
2022/10/11 12:01:23;;;;;;;29.20;27.00;;;17.30;90.00;;;;;;4976730;28;20031;-77
2022/10/11 12:03:57;;;;;;;31.40;29.02;;;17.30;90.10;;;;;;4992492;28;20041;-76
2022/10/11 12:06:34;;;;;;;31.83;28.77;;;17.20;90.40;;;;;;4964096;28;20035;-77
2022/10/11 12:09:07;;;;;;;31.73;29.33;;;17.20;90.30;;;;;;4995675;28;20042;-76
2022/10/11 12:11:36;;;;;;;31.17;28.75;;;17.20;90.30;;;;;;5012160;28;20018;-76
2022/10/11 12:14:31;;;;;;;33.35;30.95;;;17.20;90.40;;;;;;5012205;28;20387;-76
2022/10/11 12:17:07;;;;;;;32.75;30.23;;;17.30;90.30;;;;;;5008646;28;20042;-76
2022/10/11 12:19:33;;;;;;;33.00;30.25;;;17.40;90.60;;;;;;4998708;28;20038;-76
2022/10/11 12:22:34;;;;;;;32.10;29.30;;;17.50;90.30;;;;;;4977885;28;20039;-76
2022/10/11 12:25:07;;;;;;;31.00;28.60;;;17.60;90.10;;;;;;4975260;28;20039;-76
2022/10/11 12:27:35;;;;;;;31.73;29.33;;;17.50;90.10;;;;;;4993666;28;20041;-76
2022/10/11 12:30:02;;;;;;;31.58;28.98;;;17.60;90.10;;;;;;4992378;28;20045;-76
2022/10/11 12:32:33;;;;;;;35.22;32.38;;;17.80;90.00;;;;;;4990535;28;20054;-76
2022/10/11 12:35:30;;;;;;;33.33;30.23;;;18.00;88.40;;;;;;4990655;28;20034;-76
2022/10/11 12:38:17;;;;;;;32.95;30.23;;;17.90;88.60;;;;;;4975600;28;20035;-81
2022/10/11 12:40:45;;;;;;;34.28;31.60;;;17.80;89.10;;;;;;4970856;28;20475;-83
2022/10/11 12:43:14;;;;;;;36.05;33.00;;;17.90;89.60;;;;;;4972560;28;20035;-77
2022/10/11 12:45:46;;;;;;;34.83;31.88;;;18.00;88.60;;;;;;4974788;28;20387;-76